sensor_id;sensor_type;location;lat;lon;timestamp;temperature;humidity
43991;DHT22;29654;50.784;20.604;2023-08-08T00:04:09;21.00;56.00
43991;DHT22;29654;50.784;20.604;2023-08-08T00:09:13;21.00;56.10
43991;DHT22;29654;50.784;20.604;2023-08-08T00:14:16;21.00;56.20
43991;DHT22;29654;50.784;20.604;2023-08-08T00:19:18;20.90;56.00
43991;DHT22;29654;50.784;20.604;2023-08-08T00:24:22;20.90;56.10
43991;DHT22;29654;50.784;20.604;2023-08-08T00:29:25;20.90;56.20
43991;DHT22;29654;50.784;20.604;2023-08-08T00:34:27;20.80;56.10
43991;DHT22;29654;50.784;20.604;2023-08-08T00:39:31;20.80;56.20
43991;DHT22;29654;50.784;20.604;2023-08-08T00:44:34;20.80;56.20
43991;DHT22;29654;50.784;20.604;2023-08-08T00:49:38;20.80;56.30
43991;DHT22;29654;50.784;20.604;2023-08-08T00:54:42;20.80;56.30
43991;DHT22;29654;50.784;20.604;2023-08-08T00:59:45;20.80;56.40
43991;DHT22;29654;50.784;20.604;2023-08-08T01:04:49;20.80;56.50
43991;DHT22;29654;50.784;20.604;2023-08-08T01:09:57;20.70;56.40
43991;DHT22;29654;50.784;20.604;2023-08-08T01:15:07;20.80;56.70
43991;DHT22;29654;50.784;20.604;2023-08-08T01:20:11;20.80;56.40
43991;DHT22;29654;50.784;20.604;2023-08-08T01:25:19;20.70;56.40
43991;DHT22;29654;50.784;20.604;2023-08-08T01:30:22;20.70;56.30
43991;DHT22;29654;50.784;20.604;2023-08-08T01:35:38;20.60;56.10
43991;DHT22;29654;50.784;20.604;2023-08-08T01:40:45;20.60;56.10
43991;DHT22;29654;50.784;20.604;2023-08-08T01:45:50;20.50;56.00
43991;DHT22;29654;50.784;20.604;2023-08-08T01:50:53;20.40;55.90
43991;DHT22;29654;50.784;20.604;2023-08-08T01:55:57;20.40;55.90
43991;DHT22;29654;50.784;20.604;2023-08-08T02:00:59;20.30;56.00
43991;DHT22;29654;50.784;20.604;2023-08-08T02:06:02;20.20;55.90
43991;DHT22;29654;50.784;20.604;2023-08-08T02:11:06;20.10;55.90
43991;DHT22;29654;50.784;20.604;2023-08-08T02:16:08;20.10;55.90
43991;DHT22;29654;50.784;20.604;2023-08-08T02:21:11;20.00;55.90
43991;DHT22;29654;50.784;20.604;2023-08-08T02:26:15;19.90;55.90
43991;DHT22;29654;50.784;20.604;2023-08-08T02:31:17;19.90;56.00
43991;DHT22;29654;50.784;20.604;2023-08-08T02:36:21;19.80;55.90
43991;DHT22;29654;50.784;20.604;2023-08-08T02:41:25;19.70;55.90
43991;DHT22;29654;50.784;20.604;2023-08-08T02:46:28;19.70;56.00
43991;DHT22;29654;50.784;20.604;2023-08-08T02:51:31;19.60;56.00
43991;DHT22;29654;50.784;20.604;2023-08-08T02:56:35;19.60;56.00
43991;DHT22;29654;50.784;20.604;2023-08-08T03:01:38;19.50;56.10
43991;DHT22;29654;50.784;20.604;2023-08-08T03:06:47;19.40;56.10
43991;DHT22;29654;50.784;20.604;2023-08-08T03:11:52;19.40;56.20
43991;DHT22;29654;50.784;20.604;2023-08-08T03:16:54;19.40;56.30
43991;DHT22;29654;50.784;20.604;2023-08-08T03:21:57;19.30;56.20
43991;DHT22;29654;50.784;20.604;2023-08-08T03:27:02;19.30;56.20
43991;DHT22;29654;50.784;20.604;2023-08-08T03:32:06;19.30;56.40
43991;DHT22;29654;50.784;20.604;2023-08-08T03:37:09;19.30;56.40
43991;DHT22;29654;50.784;20.604;2023-08-08T03:42:14;19.30;56.30
43991;DHT22;29654;50.784;20.604;2023-08-08T03:47:16;19.30;56.30
43991;DHT22;29654;50.784;20.604;2023-08-08T03:52:20;19.30;56.30
43991;DHT22;29654;50.784;20.604;2023-08-08T03:57:24;19.30;56.30
43991;DHT22;29654;50.784;20.604;2023-08-08T04:02:26;19.30;56.40
43991;DHT22;29654;50.784;20.604;2023-08-08T04:07:29;19.40;56.60
43991;DHT22;29654;50.784;20.604;2023-08-08T04:12:33;19.40;56.70
43991;DHT22;29654;50.784;20.604;2023-08-08T04:17:36;19.50;56.70
43991;DHT22;29654;50.784;20.604;2023-08-08T04:22:38;19.70;56.90
43991;DHT22;29654;50.784;20.604;2023-08-08T04:27:42;19.90;56.90
43991;DHT22;29654;50.784;20.604;2023-08-08T04:32:45;20.00;56.60
43991;DHT22;29654;50.784;20.604;2023-08-08T04:37:48;20.20;56.40
43991;DHT22;29654;50.784;20.604;2023-08-08T04:42:51;20.40;56.20
43991;DHT22;29654;50.784;20.604;2023-08-08T04:47:54;20.40;55.70
43991;DHT22;29654;50.784;20.604;2023-08-08T04:52:57;20.50;55.60
43991;DHT22;29654;50.784;20.604;2023-08-08T04:58:00;20.50;55.40
43991;DHT22;29654;50.784;20.604;2023-08-08T05:03:03;20.50;55.30
43991;DHT22;29654;50.784;20.604;2023-08-08T05:08:06;20.50;55.30
43991;DHT22;29654;50.784;20.604;2023-08-08T05:13:10;20.50;55.30
43991;DHT22;29654;50.784;20.604;2023-08-08T05:18:14;20.60;55.50
43991;DHT22;29654;50.784;20.604;2023-08-08T05:23:17;20.70;55.80
43991;DHT22;29654;50.784;20.604;2023-08-08T05:28:21;20.90;55.90
43991;DHT22;29654;50.784;20.604;2023-08-08T05:33:23;21.10;55.70
43991;DHT22;29654;50.784;20.604;2023-08-08T05:38:26;21.40;55.60
43991;DHT22;29654;50.784;20.604;2023-08-08T05:43:30;21.70;55.40
43991;DHT22;29654;50.784;20.604;2023-08-08T05:48:32;22.00;55.10
43991;DHT22;29654;50.784;20.604;2023-08-08T05:53:35;22.20;54.60
43991;DHT22;29654;50.784;20.604;2023-08-08T05:58:40;22.40;54.00
43991;DHT22;29654;50.784;20.604;2023-08-08T06:03:43;22.50;53.60
43991;DHT22;29654;50.784;20.604;2023-08-08T06:08:45;22.70;53.40
43991;DHT22;29654;50.784;20.604;2023-08-08T06:13:49;22.80;53.00
43991;DHT22;29654;50.784;20.604;2023-08-08T06:18:52;22.90;52.20
43991;DHT22;29654;50.784;20.604;2023-08-08T06:23:55;23.00;52.10
43991;DHT22;29654;50.784;20.604;2023-08-08T06:28:59;23.10;52.00
43991;DHT22;29654;50.784;20.604;2023-08-08T06:34:01;23.20;51.80
43991;DHT22;29654;50.784;20.604;2023-08-08T06:39:04;23.30;51.20
43991;DHT22;29654;50.784;20.604;2023-08-08T06:44:08;23.40;50.30
43991;DHT22;29654;50.784;20.604;2023-08-08T06:49:11;23.40;50.10
43991;DHT22;29654;50.784;20.604;2023-08-08T06:54:13;23.30;49.80
43991;DHT22;29654;50.784;20.604;2023-08-08T06:59:17;23.30;49.90
43991;DHT22;29654;50.784;20.604;2023-08-08T07:04:20;23.30;50.20
43991;DHT22;29654;50.784;20.604;2023-08-08T07:09:24;23.40;50.10
43991;DHT22;29654;50.784;20.604;2023-08-08T07:14:28;23.40;49.00
43991;DHT22;29654;50.784;20.604;2023-08-08T07:19:30;23.40;48.20
43991;DHT22;29654;50.784;20.604;2023-08-08T07:24:33;23.30;48.60
43991;DHT22;29654;50.784;20.604;2023-08-08T07:29:37;23.30;48.70
43991;DHT22;29654;50.784;20.604;2023-08-08T07:34:39;23.30;48.10
43991;DHT22;29654;50.784;20.604;2023-08-08T07:39:42;23.30;48.10
43991;DHT22;29654;50.784;20.604;2023-08-08T07:44:46;23.40;48.40
43991;DHT22;29654;50.784;20.604;2023-08-08T07:49:49;23.50;48.10
43991;DHT22;29654;50.784;20.604;2023-08-08T07:54:51;23.60;47.80
43991;DHT22;29654;50.784;20.604;2023-08-08T07:59:55;23.80;47.70
43991;DHT22;29654;50.784;20.604;2023-08-08T08:04:58;23.90;47.20
43991;DHT22;29654;50.784;20.604;2023-08-08T08:10:00;24.10;46.20
43991;DHT22;29654;50.784;20.604;2023-08-08T08:15:06;24.20;46.30
43991;DHT22;29654;50.784;20.604;2023-08-08T08:20:10;24.30;45.80
43991;DHT22;29654;50.784;20.604;2023-08-08T08:25:14;24.40;46.50
43991;DHT22;29654;50.784;20.604;2023-08-08T08:30:18;24.70;46.60
43991;DHT22;29654;50.784;20.604;2023-08-08T08:35:21;24.90;45.60
43991;DHT22;29654;50.784;20.604;2023-08-08T08:40:24;25.00;44.90
43991;DHT22;29654;50.784;20.604;2023-08-08T08:45:28;25.10;44.60
43991;DHT22;29654;50.784;20.604;2023-08-08T08:50:33;25.20;43.70
43991;DHT22;29654;50.784;20.604;2023-08-08T08:55:36;25.10;43.70
43991;DHT22;29654;50.784;20.604;2023-08-08T09:00:40;25.20;43.40
43991;DHT22;29654;50.784;20.604;2023-08-08T09:05:43;25.20;42.60
43991;DHT22;29654;50.784;20.604;2023-08-08T09:10:46;25.20;42.70
43991;DHT22;29654;50.784;20.604;2023-08-08T09:15:50;25.20;42.60
43991;DHT22;29654;50.784;20.604;2023-08-08T09:20:53;25.20;42.00
43991;DHT22;29654;50.784;20.604;2023-08-08T09:25:56;25.10;41.80
43991;DHT22;29654;50.784;20.604;2023-08-08T09:31:01;25.20;42.10
43991;DHT22;29654;50.784;20.604;2023-08-08T09:36:04;25.20;41.90
43991;DHT22;29654;50.784;20.604;2023-08-08T09:41:07;25.20;42.00
43991;DHT22;29654;50.784;20.604;2023-08-08T09:46:11;25.20;42.60
43991;DHT22;29654;50.784;20.604;2023-08-08T09:51:16;25.30;42.00
43991;DHT22;29654;50.784;20.604;2023-08-08T09:56:19;25.30;42.40
43991;DHT22;29654;50.784;20.604;2023-08-08T10:01:25;25.40;42.40
43991;DHT22;29654;50.784;20.604;2023-08-08T10:06:28;25.50;42.60
43991;DHT22;29654;50.784;20.604;2023-08-08T10:11:32;25.60;42.80
43991;DHT22;29654;50.784;20.604;2023-08-08T10:16:37;25.90;42.60
43991;DHT22;29654;50.784;20.604;2023-08-08T10:21:43;26.10;42.30
43991;DHT22;29654;50.784;20.604;2023-08-08T10:26:53;26.30;42.40
43991;DHT22;29654;50.784;20.604;2023-08-08T10:32:00;26.60;40.80
43991;DHT22;29654;50.784;20.604;2023-08-08T10:37:08;26.70;40.70
43991;DHT22;29654;50.784;20.604;2023-08-08T10:42:18;26.80;40.60
43991;DHT22;29654;50.784;20.604;2023-08-08T10:47:23;26.80;40.40
43991;DHT22;29654;50.784;20.604;2023-08-08T10:52:26;26.80;40.40
43991;DHT22;29654;50.784;20.604;2023-08-08T10:57:30;26.70;40.50
43991;DHT22;29654;50.784;20.604;2023-08-08T11:02:35;26.60;40.50
43991;DHT22;29654;50.784;20.604;2023-08-08T11:07:37;26.60;40.40
43991;DHT22;29654;50.784;20.604;2023-08-08T11:12:40;26.70;40.90
43991;DHT22;29654;50.784;20.604;2023-08-08T11:17:44;26.80;40.60
43991;DHT22;29654;50.784;20.604;2023-08-08T11:22:51;26.90;39.80
43991;DHT22;29654;50.784;20.604;2023-08-08T11:27:55;26.80;39.20
43991;DHT22;29654;50.784;20.604;2023-08-08T11:33:00;26.70;39.80
43991;DHT22;29654;50.784;20.604;2023-08-08T11:38:03;26.70;39.60
43991;DHT22;29654;50.784;20.604;2023-08-08T11:43:06;26.50;39.80
43991;DHT22;29654;50.784;20.604;2023-08-08T11:48:11;26.50;40.10
43991;DHT22;29654;50.784;20.604;2023-08-08T11:53:13;26.50;40.40
43991;DHT22;29654;50.784;20.604;2023-08-08T11:58:16;26.60;40.90
43991;DHT22;29654;50.784;20.604;2023-08-08T12:03:20;26.80;40.70
43991;DHT22;29654;50.784;20.604;2023-08-08T12:08:22;27.00;39.90
43991;DHT22;29654;50.784;20.604;2023-08-08T12:13:27;27.10;40.00
43991;DHT22;29654;50.784;20.604;2023-08-08T12:18:31;27.20;40.40
43991;DHT22;29654;50.784;20.604;2023-08-08T12:23:35;27.30;40.20
43991;DHT22;29654;50.784;20.604;2023-08-08T12:28:38;27.40;40.00
43991;DHT22;29654;50.784;20.604;2023-08-08T12:33:42;27.50;39.70
43991;DHT22;29654;50.784;20.604;2023-08-08T12:38:46;27.40;39.60
43991;DHT22;29654;50.784;20.604;2023-08-08T12:43:49;27.40;39.30
43991;DHT22;29654;50.784;20.604;2023-08-08T12:48:52;27.20;39.60
43991;DHT22;29654;50.784;20.604;2023-08-08T12:53:55;27.00;39.70
43991;DHT22;29654;50.784;20.604;2023-08-08T12:58:58;26.80;40.00
43991;DHT22;29654;50.784;20.604;2023-08-08T13:04:02;26.80;40.50
43991;DHT22;29654;50.784;20.604;2023-08-08T13:09:05;26.80;40.60
43991;DHT22;29654;50.784;20.604;2023-08-08T13:14:07;26.80;40.50
43991;DHT22;29654;50.784;20.604;2023-08-08T13:19:11;26.80;40.50
43991;DHT22;29654;50.784;20.604;2023-08-08T13:24:15;26.80;41.80
43991;DHT22;29654;50.784;20.604;2023-08-08T13:29:18;26.70;42.40
43991;DHT22;29654;50.784;20.604;2023-08-08T13:34:22;26.70;43.00
43991;DHT22;29654;50.784;20.604;2023-08-08T13:39:24;26.70;43.30
43991;DHT22;29654;50.784;20.604;2023-08-08T13:44:27;26.70;43.30
43991;DHT22;29654;50.784;20.604;2023-08-08T13:49:31;26.80;42.90
43991;DHT22;29654;50.784;20.604;2023-08-08T13:54:33;26.80;42.80
43991;DHT22;29654;50.784;20.604;2023-08-08T13:59:36;26.80;42.10
43991;DHT22;29654;50.784;20.604;2023-08-08T14:04:40;26.70;42.70
43991;DHT22;29654;50.784;20.604;2023-08-08T14:09:42;26.70;41.70
43991;DHT22;29654;50.784;20.604;2023-08-08T14:14:45;26.60;41.70
43991;DHT22;29654;50.784;20.604;2023-08-08T14:19:49;26.50;41.70
43991;DHT22;29654;50.784;20.604;2023-08-08T14:24:52;26.40;41.50
43991;DHT22;29654;50.784;20.604;2023-08-08T14:29:55;26.40;42.10
43991;DHT22;29654;50.784;20.604;2023-08-08T14:34:59;26.40;41.90
43991;DHT22;29654;50.784;20.604;2023-08-08T14:40:06;26.40;42.10
43991;DHT22;29654;50.784;20.604;2023-08-08T14:45:10;26.30;41.90
43991;DHT22;29654;50.784;20.604;2023-08-08T14:50:15;26.40;42.00
43991;DHT22;29654;50.784;20.604;2023-08-08T14:55:18;26.50;41.50
43991;DHT22;29654;50.784;20.604;2023-08-08T15:00:20;26.50;40.60
43991;DHT22;29654;50.784;20.604;2023-08-08T15:05:24;26.60;40.40
43991;DHT22;29654;50.784;20.604;2023-08-08T15:10:27;26.70;39.90
43991;DHT22;29654;50.784;20.604;2023-08-08T15:15:30;26.80;39.80
43991;DHT22;29654;50.784;20.604;2023-08-08T15:20:33;26.90;39.60
43991;DHT22;29654;50.784;20.604;2023-08-08T15:25:37;27.00;39.20
43991;DHT22;29654;50.784;20.604;2023-08-08T15:30:40;27.00;38.70
43991;DHT22;29654;50.784;20.604;2023-08-08T15:35:44;27.00;38.30
43991;DHT22;29654;50.784;20.604;2023-08-08T15:40:46;27.00;37.60
43991;DHT22;29654;50.784;20.604;2023-08-08T15:45:49;27.00;37.90
43991;DHT22;29654;50.784;20.604;2023-08-08T15:50:53;26.90;37.70
43991;DHT22;29654;50.784;20.604;2023-08-08T15:55:56;26.90;37.20
43991;DHT22;29654;50.784;20.604;2023-08-08T16:00:58;26.80;37.20
43991;DHT22;29654;50.784;20.604;2023-08-08T16:06:02;26.70;37.40
43991;DHT22;29654;50.784;20.604;2023-08-08T16:11:05;26.70;36.70
43991;DHT22;29654;50.784;20.604;2023-08-08T16:16:08;26.60;36.90
43991;DHT22;29654;50.784;20.604;2023-08-08T16:21:12;26.50;37.10
43991;DHT22;29654;50.784;20.604;2023-08-08T16:26:15;26.50;36.90
43991;DHT22;29654;50.784;20.604;2023-08-08T16:31:17;26.40;36.90
43991;DHT22;29654;50.784;20.604;2023-08-08T16:36:21;26.40;37.00
43991;DHT22;29654;50.784;20.604;2023-08-08T16:41:24;26.40;37.10
43991;DHT22;29654;50.784;20.604;2023-08-08T16:46:27;26.30;37.50
43991;DHT22;29654;50.784;20.604;2023-08-08T16:51:30;26.30;37.40
43991;DHT22;29654;50.784;20.604;2023-08-08T16:56:33;26.30;37.30
43991;DHT22;29654;50.784;20.604;2023-08-08T17:01:36;26.30;37.30
43991;DHT22;29654;50.784;20.604;2023-08-08T17:06:43;26.30;37.30
43991;DHT22;29654;50.784;20.604;2023-08-08T17:11:46;26.20;37.30
43991;DHT22;29654;50.784;20.604;2023-08-08T17:16:48;26.10;37.50
43991;DHT22;29654;50.784;20.604;2023-08-08T17:21:52;26.00;37.70
43991;DHT22;29654;50.784;20.604;2023-08-08T17:26:57;25.90;37.70
43991;DHT22;29654;50.784;20.604;2023-08-08T17:32:00;25.90;37.80
43991;DHT22;29654;50.784;20.604;2023-08-08T17:37:04;25.70;37.90
43991;DHT22;29654;50.784;20.604;2023-08-08T17:42:06;25.60;37.90
43991;DHT22;29654;50.784;20.604;2023-08-08T17:47:09;25.50;38.40
43991;DHT22;29654;50.784;20.604;2023-08-08T17:52:13;25.30;38.70
43991;DHT22;29654;50.784;20.604;2023-08-08T17:57:15;25.10;39.20
43991;DHT22;29654;50.784;20.604;2023-08-08T18:02:18;24.90;39.30
43991;DHT22;29654;50.784;20.604;2023-08-08T18:07:22;24.70;39.60
43991;DHT22;29654;50.784;20.604;2023-08-08T18:12:25;24.50;40.10
43991;DHT22;29654;50.784;20.604;2023-08-08T18:17:28;24.30;40.20
43991;DHT22;29654;50.784;20.604;2023-08-08T18:22:32;24.00;40.50
43991;DHT22;29654;50.784;20.604;2023-08-08T18:27:36;23.80;40.60
43991;DHT22;29654;50.784;20.604;2023-08-08T18:32:39;23.60;40.90
43991;DHT22;29654;50.784;20.604;2023-08-08T18:37:43;23.40;41.20
43991;DHT22;29654;50.784;20.604;2023-08-08T18:42:46;23.30;41.40
43991;DHT22;29654;50.784;20.604;2023-08-08T18:47:48;23.10;41.60
43991;DHT22;29654;50.784;20.604;2023-08-08T18:52:53;22.90;41.70
43991;DHT22;29654;50.784;20.604;2023-08-08T18:57:55;22.70;42.00
43991;DHT22;29654;50.784;20.604;2023-08-08T19:02:59;22.60;42.10
43991;DHT22;29654;50.784;20.604;2023-08-08T19:08:03;22.40;42.40
43991;DHT22;29654;50.784;20.604;2023-08-08T19:13:06;22.30;42.70
43991;DHT22;29654;50.784;20.604;2023-08-08T19:18:08;22.20;42.80
43991;DHT22;29654;50.784;20.604;2023-08-08T19:23:13;22.10;43.00
43991;DHT22;29654;50.784;20.604;2023-08-08T19:28:16;22.00;43.20
43991;DHT22;29654;50.784;20.604;2023-08-08T19:33:20;21.90;43.40
43991;DHT22;29654;50.784;20.604;2023-08-08T19:38:27;21.90;43.50
43991;DHT22;29654;50.784;20.604;2023-08-08T19:43:31;21.80;43.90
43991;DHT22;29654;50.784;20.604;2023-08-08T19:48:34;21.60;43.90
43991;DHT22;29654;50.784;20.604;2023-08-08T19:53:38;21.60;44.10
43991;DHT22;29654;50.784;20.604;2023-08-08T19:58:40;21.50;44.40
43991;DHT22;29654;50.784;20.604;2023-08-08T20:03:43;21.40;44.40
43991;DHT22;29654;50.784;20.604;2023-08-08T20:08:47;21.40;44.50
43991;DHT22;29654;50.784;20.604;2023-08-08T20:13:50;21.30;44.80
43991;DHT22;29654;50.784;20.604;2023-08-08T20:18:52;21.20;44.90
43991;DHT22;29654;50.784;20.604;2023-08-08T20:23:56;21.10;45.00
43991;DHT22;29654;50.784;20.604;2023-08-08T20:28:59;21.10;45.20
43991;DHT22;29654;50.784;20.604;2023-08-08T20:34:02;21.00;45.40
43991;DHT22;29654;50.784;20.604;2023-08-08T20:39:06;20.90;45.50
43991;DHT22;29654;50.784;20.604;2023-08-08T20:44:09;20.80;45.70
43991;DHT22;29654;50.784;20.604;2023-08-08T20:49:11;20.80;45.80
43991;DHT22;29654;50.784;20.604;2023-08-08T20:54:15;20.80;46.00
43991;DHT22;29654;50.784;20.604;2023-08-08T20:59:18;20.80;46.20
43991;DHT22;29654;50.784;20.604;2023-08-08T21:04:21;20.80;46.40
43991;DHT22;29654;50.784;20.604;2023-08-08T21:09:26;20.80;46.50
43991;DHT22;29654;50.784;20.604;2023-08-08T21:14:28;20.80;46.50
43991;DHT22;29654;50.784;20.604;2023-08-08T21:19:31;20.80;46.50
43991;DHT22;29654;50.784;20.604;2023-08-08T21:24:35;20.90;46.50
43991;DHT22;29654;50.784;20.604;2023-08-08T21:29:37;20.90;46.70
43991;DHT22;29654;50.784;20.604;2023-08-08T21:34:40;20.90;46.70
43991;DHT22;29654;50.784;20.604;2023-08-08T21:39:44;21.00;46.80
43991;DHT22;29654;50.784;20.604;2023-08-08T21:44:47;21.00;46.90
43991;DHT22;29654;50.784;20.604;2023-08-08T21:49:49;21.00;46.80
43991;DHT22;29654;50.784;20.604;2023-08-08T21:54:53;21.00;47.10
43991;DHT22;29654;50.784;20.604;2023-08-08T21:59:56;21.00;47.30
43991;DHT22;29654;50.784;20.604;2023-08-08T22:04:58;21.00;47.50
43991;DHT22;29654;50.784;20.604;2023-08-08T22:10:03;21.00;48.00
43991;DHT22;29654;50.784;20.604;2023-08-08T22:15:08;21.00;48.30
43991;DHT22;29654;50.784;20.604;2023-08-08T22:20:11;21.00;48.30
43991;DHT22;29654;50.784;20.604;2023-08-08T22:25:15;21.00;48.20
43991;DHT22;29654;50.784;20.604;2023-08-08T22:30:19;21.10;48.30
43991;DHT22;29654;50.784;20.604;2023-08-08T22:35:23;21.00;48.10
43991;DHT22;29654;50.784;20.604;2023-08-08T22:40:27;21.00;48.80
43991;DHT22;29654;50.784;20.604;2023-08-08T22:45:30;20.90;48.40
43991;DHT22;29654;50.784;20.604;2023-08-08T22:50:33;20.80;48.50
43991;DHT22;29654;50.784;20.604;2023-08-08T22:55:38;20.80;48.60
43991;DHT22;29654;50.784;20.604;2023-08-08T23:00:41;20.70;48.70
43991;DHT22;29654;50.784;20.604;2023-08-08T23:05:45;20.60;48.70
43991;DHT22;29654;50.784;20.604;2023-08-08T23:10:49;20.50;48.70
43991;DHT22;29654;50.784;20.604;2023-08-08T23:15:51;20.40;49.00
43991;DHT22;29654;50.784;20.604;2023-08-08T23:20:54;20.30;48.90
43991;DHT22;29654;50.784;20.604;2023-08-08T23:25:58;20.30;49.20
43991;DHT22;29654;50.784;20.604;2023-08-08T23:31:00;20.20;49.40
43991;DHT22;29654;50.784;20.604;2023-08-08T23:36:03;20.20;49.40
43991;DHT22;29654;50.784;20.604;2023-08-08T23:41:09;20.20;49.50
43991;DHT22;29654;50.784;20.604;2023-08-08T23:46:12;20.20;49.60
43991;DHT22;29654;50.784;20.604;2023-08-08T23:51:15;20.30;49.60
43991;DHT22;29654;50.784;20.604;2023-08-08T23:56:19;20.30;49.50
